This is the latest recevied weather packets stored in our database for station/object KD7KCN-5. If no packets are shown the sender has not sent any weather packets the latest 10 day(s).
| Time | Temp. | Humidity | Pressure | Rain* | Wind** | Luminosity | Snow |
|---|---|---|---|---|---|---|---|
| 1778091705 | 20° C | 32% | 1016.8 hPa | 0 mm | - | 262 W/m² | - |
| 1778086306 | 17.22° C | 39% | 1016.1 hPa | 0 mm | - | 130 W/m² | - |
| 1778085705 | 18.33° C | 38% | 1016.1 hPa | 0 mm | - | 768 W/m² | - |
| 1778085105 | 17.78° C | 38% | 1016 hPa | 0 mm | - | 724 W/m² | - |
| 1778084505 | 17.22° C | 40% | 1016.1 hPa | 0 mm | - | 51 W/m² | - |
| 1778083905 | 17.22° C | 41% | 1016.2 hPa | 0 mm | - | 666 W/m² | - |
| 1778082705 | 16.11° C | 45% | 1016.3 hPa | 0 mm | - | 610 W/m² | - |
| 1778082105 | 15.56° C | 44% | 1016.5 hPa | 0 mm | - | 580 W/m² | - |
| 1778080905 | 15° C | 48% | 1016.3 hPa | 0 mm | - | 527 W/m² | - |
| 1778080306 | 15° C | 45% | 1016.4 hPa | 0 mm | - | 496 W/m² | - |
| 1778079105 | 14.44° C | 42% | 1016.3 hPa | 0 mm | - | 434 W/m² | - |
| 1778078505 | 13.89° C | 43% | 1016.1 hPa | 0 mm | - | 399 W/m² | - |
| 1778077905 | 13.33° C | 45% | 1016.1 hPa | 0 mm | - | 366 W/m² | - |
| 1778077305 | 13.33° C | 44% | 1015.9 hPa | 0 mm | - | 332 W/m² | - |
| 1778076705 | 12.78° C | 46% | 1014.9 hPa | 0 mm | - | 297 W/m² | - |
| 1778076105 | 12.22° C | 46% | 1014.8 hPa | 0 mm | - | 264 W/m² | - |
| 1778075505 | 11.67° C | 48% | 1014.8 hPa | 0 mm | - | 229 W/m² | - |
| 1778074905 | 11.11° C | 48% | 1014.5 hPa | 0 mm | - | 197 W/m² | - |
| 1778074305 | 10.56° C | 47% | 1014.3 hPa | 0 mm | - | 155 W/m² | - |
| 1778073706 | 10° C | 48% | 1014.2 hPa | 0 mm | - | 114 W/m² | - |
| 1778073106 | 10° C | 47% | 1014.1 hPa | 0 mm | - | 79 W/m² | - |
| 1778072505 | 10° C | 49% | 1014 hPa | 0 mm | - | 47 W/m² | - |
| 1778071305 | 8.89° C | 50% | 1014 hPa | 0 mm | - | 7 W/m² | - |
| 1778070705 | 8.89° C | 50% | 1013.7 hPa | 0 mm | - | 0 W/m² | - |
| 1778070105 | 9.44° C | 48% | 1013.7 hPa | 0 mm | - | 0 W/m² | - |
* Rain latest hour (hover to see other rain measurements)
** Current wind speed in m/s (hover to see current wind gust speed)